Time;durP1;ratioP1;P1;durP2;ratioP2;P2;SDS_P1;SDS_P2;PMS_P1;PMS_P2;Temp;Humidity;BMP_temperature;BMP_pressure;BME280_temperature;BME280_humidity;BME280_pressure;Samples;Min_cycle;Max_cycle;Signal;HPM_P1;HPM_P2
2022/12/22 03:27:12;;;;;;;1.83;1.40;;;9.70;1.00;;;;;;5102844;28;20429;-44
2022/12/22 03:29:37;;;;;;;1.77;1.60;;;9.70;1.00;;;;;;5120689;28;20422;-43
2022/12/22 03:32:03;;;;;;;2.07;1.20;;;9.70;1.00;;;;;;5120084;28;20168;-45
2022/12/22 03:34:29;;;;;;;1.70;1.20;;;9.80;1.00;;;;;;5102921;28;20176;-44
2022/12/22 03:36:54;;;;;;;3.20;1.40;;;9.70;1.00;;;;;;5121017;28;20558;-44
2022/12/22 03:39:20;;;;;;;1.43;1.00;;;9.70;1.00;;;;;;5120851;28;20179;-45
2022/12/22 03:47:14;;;;;;;1.43;1.13;;;9.80;1.00;;;;;;5104324;28;20429;-43
2022/12/22 03:49:39;;;;;;;3.03;1.30;;;9.80;1.00;;;;;;5102687;28;20425;-42
2022/12/22 03:52:05;;;;;;;1.87;0.90;;;9.80;1.00;;;;;;5119585;28;20175;-43
2022/12/22 03:54:30;;;;;;;1.37;0.90;;;9.80;1.00;;;;;;5119974;28;20538;-44
2022/12/22 03:56:56;;;;;;;1.50;1.00;;;9.80;1.00;;;;;;5119542;28;20168;-42
2022/12/22 03:59:22;;;;;;;4.87;1.30;;;9.80;1.00;;;;;;5120069;28;20282;-42
2022/12/22 04:01:50;;;;;;;1.87;1.20;;;9.80;99.90;;;;;;5117998;28;20195;-41
2022/12/22 04:04:17;;;;;;;1.20;0.90;;;9.80;99.90;;;;;;5116767;28;20503;-41
2022/12/22 04:06:43;;;;;;;1.37;0.90;;;9.90;99.90;;;;;;5116682;28;20402;-44
2022/12/22 04:09:09;;;;;;;1.63;1.10;;;9.90;99.90;;;;;;5115236;28;20651;-41
2022/12/22 04:14:20;;;;;;;1.63;1.00;;;9.90;99.90;;;;;;5114786;28;20817;-41
2022/12/22 04:16:46;;;;;;;4.30;0.93;;;9.90;99.90;;;;;;5099330;28;20443;-41
2022/12/22 04:19:12;;;;;;;1.63;0.90;;;9.90;99.90;;;;;;5108491;28;20808;-41
2022/12/22 04:21:37;;;;;;;1.63;0.93;;;9.90;99.90;;;;;;5096143;28;20458;-42
2022/12/22 04:24:03;;;;;;;2.50;1.00;;;10.00;99.90;;;;;;5102702;28;20183;-42
2022/12/22 04:26:29;;;;;;;1.33;0.97;;;10.00;99.90;;;;;;5116537;28;20188;-40
2022/12/22 04:28:55;;;;;;;2.03;1.20;;;10.00;99.90;;;;;;5116248;28;20405;-41
2022/12/22 04:31:22;;;;;;;1.57;0.80;;;10.00;99.90;;;;;;5116093;28;20248;-42
2022/12/22 04:33:47;;;;;;;2.23;0.80;;;10.00;99.90;;;;;;5099125;28;20676;-41
2022/12/22 04:36:14;;;;;;;2.23;0.93;;;10.00;99.90;;;;;;5118229;28;20882;-40
2022/12/22 04:38:40;;;;;;;1.83;0.90;;;10.00;99.90;;;;;;5098466;28;20207;-41
2022/12/22 04:41:06;;;;;;;1.40;1.00;;;10.00;89.20;;;;;;5117766;28;20523;-42
2022/12/22 04:43:31;;;;;;;1.57;1.00;;;10.00;76.70;;;;;;5098420;28;20466;-42
2022/12/22 04:45:57;;;;;;;1.67;0.90;;;10.00;1.00;;;;;;5116818;28;20424;-45
2022/12/22 04:48:24;;;;;;;2.83;1.20;;;10.00;7.80;;;;;;5098100;28;20420;-41
2022/12/22 04:50:51;;;;;;;2.60;1.00;;;10.00;1.00;;;;;;5079588;28;20545;-43
2022/12/22 04:53:17;;;;;;;2.67;1.07;;;10.00;1.00;;;;;;5114724;28;20669;-44
2022/12/22 04:55:47;;;;;;;2.20;1.20;;;10.00;1.00;;;;;;5115534;28;20432;-43
2022/12/22 04:58:13;;;;;;;2.63;0.93;;;10.00;13.40;;;;;;5115729;28;20187;-42
2022/12/22 05:00:38;;;;;;;2.60;0.90;;;10.00;20.60;;;;;;5113862;28;20461;-42
2022/12/22 05:03:04;;;;;;;3.00;1.60;;;10.00;86.00;;;;;;5097067;28;20180;-42
2022/12/22 05:05:30;;;;;;;4.00;1.40;;;10.00;77.90;;;;;;5115018;28;20316;-42
2022/12/22 05:07:55;;;;;;;2.00;1.13;;;10.00;99.90;;;;;;5116372;28;20413;-43
2022/12/22 05:10:21;;;;;;;2.03;1.17;;;10.00;99.90;;;;;;5116123;28;20175;-42
2022/12/22 05:12:55;;;;;;;3.03;1.43;;;10.00;99.90;;;;;;5116411;28;20461;-42
2022/12/22 05:15:24;;;;;;;2.60;1.10;;;10.00;99.90;;;;;;5116973;28;20617;-43
2022/12/22 05:17:50;;;;;;;2.30;1.10;;;10.00;99.90;;;;;;5116654;28;20414;-42
2022/12/22 05:20:16;;;;;;;2.53;1.13;;;10.00;99.90;;;;;;5115945;28;20440;-44
2022/12/22 05:22:42;;;;;;;2.53;1.20;;;10.00;99.90;;;;;;5097783;28;20432;-41
2022/12/22 05:25:08;;;;;;;2.10;1.07;;;10.00;99.90;;;;;;5115511;28;20425;-40
2022/12/22 05:27:34;;;;;;;2.83;1.70;;;10.00;99.90;;;;;;5116696;28;20176;-44
2022/12/22 05:29:59;;;;;;;4.07;1.57;;;10.00;99.90;;;;;;5115589;28;20704;-42
2022/12/22 05:32:25;;;;;;;6.60;1.60;;;10.00;99.90;;;;;;5116991;28;20168;-43
2022/12/22 05:34:50;;;;;;;2.43;1.20;;;10.00;99.90;;;;;;5117321;28;20188;-42
2022/12/22 05:37:16;;;;;;;2.03;0.90;;;10.00;99.90;;;;;;5116071;28;20711;-43
2022/12/22 05:39:42;;;;;;;4.17;1.30;;;10.00;99.90;;;;;;5103106;28;20452;-45
2022/12/22 05:42:08;;;;;;;2.23;0.93;;;10.00;99.90;;;;;;5095529;28;20272;-47
2022/12/22 05:44:33;;;;;;;3.37;1.20;;;10.00;99.90;;;;;;5095958;28;20746;-45
2022/12/22 05:47:00;;;;;;;4.10;1.40;;;10.00;99.90;;;;;;5096369;28;20199;-45
2022/12/22 05:49:26;;;;;;;3.33;1.43;;;10.00;99.90;;;;;;5096167;28;20357;-46
2022/12/22 05:51:53;;;;;;;4.20;1.53;;;10.00;1.00;;;;;;5093590;28;20513;-44
2022/12/22 05:54:18;;;;;;;3.63;1.50;;;10.00;99.90;;;;;;5075139;28;20184;-44
2022/12/22 05:56:44;;;;;;;2.80;1.23;;;10.00;1.00;;;;;;5075211;28;20708;-44
2022/12/22 05:59:11;;;;;;;3.83;1.50;;;9.90;1.00;;;;;;5094644;28;20441;-43
2022/12/22 06:01:36;;;;;;;4.30;1.20;;;9.90;1.00;;;;;;5093272;28;20460;-44
2022/12/22 06:04:02;;;;;;;3.07;1.33;;;9.90;1.00;;;;;;5094449;28;20428;-43
2022/12/22 06:06:29;;;;;;;2.83;1.70;;;9.90;99.90;;;;;;5094490;28;20543;-44
2022/12/22 06:08:54;;;;;;;3.80;1.30;;;9.90;99.90;;;;;;5115665;28;20178;-45
2022/12/22 06:11:20;;;;;;;3.93;1.23;;;9.90;99.90;;;;;;5116096;28;20401;-45
2022/12/22 06:13:46;;;;;;;4.83;1.47;;;9.90;99.90;;;;;;5113378;28;20223;-43
2022/12/22 06:16:11;;;;;;;4.20;1.60;;;9.90;99.90;;;;;;5075201;28;20488;-41
2022/12/22 06:18:37;;;;;;;2.60;1.60;;;9.90;99.90;;;;;;5091549;28;20255;-43
2022/12/22 06:21:03;;;;;;;2.80;1.60;;;9.90;99.90;;;;;;5092095;28;20601;-43
2022/12/22 06:23:29;;;;;;;4.57;1.47;;;9.90;1.00;;;;;;5092745;28;20173;-43
2022/12/22 06:25:56;;;;;;;4.70;1.63;;;9.90;1.00;;;;;;5093165;28;20433;-44
2022/12/22 06:28:23;;;;;;;7.07;2.20;;;9.90;1.00;;;;;;5093231;28;20584;-42
2022/12/22 06:30:48;;;;;;;4.20;1.57;;;9.90;1.00;;;;;;5092412;28;20545;-42
2022/12/22 06:33:14;;;;;;;6.20;2.33;;;9.90;1.00;;;;;;5094672;28;20501;-41
2022/12/22 06:35:40;;;;;;;4.20;1.47;;;9.90;99.90;;;;;;5075117;28;20196;-42
2022/12/22 06:38:05;;;;;;;5.87;1.70;;;9.90;99.90;;;;;;5093270;28;20702;-44
2022/12/22 06:40:32;;;;;;;5.70;1.90;;;9.90;99.90;;;;;;5094253;28;20519;-41
2022/12/22 06:43:07;;;;;;;5.37;1.90;;;9.90;64.60;;;;;;5095782;28;20238;-43
2022/12/22 06:45:37;;;;;;;4.30;2.20;;;9.90;63.60;;;;;;5098385;28;20426;-44
2022/12/22 06:48:03;;;;;;;4.47;2.00;;;9.90;1.00;;;;;;5097596;28;20414;-44
2022/12/22 06:50:29;;;;;;;7.17;1.70;;;10.00;1.00;;;;;;5097218;28;20440;-42
2022/12/22 06:52:55;;;;;;;4.87;1.70;;;10.00;1.00;;;;;;5078055;28;20429;-43
2022/12/22 06:55:21;;;;;;;7.50;1.90;;;10.00;1.00;;;;;;5095513;28;20169;-43
2022/12/22 06:57:47;;;;;;;5.33;1.60;;;10.00;99.90;;;;;;5094791;28;20179;-45
2022/12/22 07:00:13;;;;;;;7.57;1.90;;;10.00;99.90;;;;;;5096422;28;20721;-42
2022/12/22 07:02:38;;;;;;;5.20;2.17;;;10.00;99.90;;;;;;5096741;28;20482;-43
2022/12/22 07:05:04;;;;;;;8.10;2.57;;;10.10;99.90;;;;;;5096756;28;20452;-41
2022/12/22 07:07:30;;;;;;;6.27;1.83;;;10.10;23.40;;;;;;5096807;28;20179;-42
2022/12/22 07:09:56;;;;;;;6.43;1.83;;;10.10;1.00;;;;;;5098018;28;20441;-43
2022/12/22 07:12:22;;;;;;;4.80;1.87;;;10.10;1.00;;;;;;5097869;28;20293;-42
2022/12/22 07:14:48;;;;;;;5.97;2.17;;;10.20;1.00;;;;;;5096541;28;20360;-43
2022/12/22 07:17:14;;;;;;;9.27;1.67;;;10.20;99.90;;;;;;5097533;28;20453;-44
2022/12/22 07:19:39;;;;;;;4.57;1.53;;;10.20;99.90;;;;;;5097954;28;20259;-42
2022/12/22 07:22:05;;;;;;;5.63;2.20;;;10.20;99.90;;;;;;5098422;28;20211;-43
2022/12/22 07:24:31;;;;;;;9.43;2.77;;;10.20;16.80;;;;;;5077660;28;20265;-42
2022/12/22 07:26:56;;;;;;;5.17;2.00;;;10.30;1.00;;;;;;5094996;28;20237;-44
2022/12/22 07:29:22;;;;;;;9.23;2.47;;;10.20;1.00;;;;;;5095549;28;20237;-43
2022/12/22 07:31:48;;;;;;;4.93;2.23;;;10.20;1.00;;;;;;5093226;28;20172;-40
2022/12/22 07:34:14;;;;;;;7.57;2.27;;;10.20;1.00;;;;;;5093215;28;20515;-42
2022/12/22 07:36:39;;;;;;;8.53;1.93;;;10.20;11.50;;;;;;5092484;28;20169;-42
2022/12/22 07:39:05;;;;;;;4.90;1.73;;;10.20;99.90;;;;;;5093618;28;20204;-42
2022/12/22 07:44:15;;;;;;;5.13;2.10;;;10.30;1.00;;;;;;5094476;28;20421;-43
2022/12/22 07:46:41;;;;;;;8.20;2.20;;;10.30;1.00;;;;;;5077419;28;20418;-44
2022/12/22 07:51:52;;;;;;;4.30;2.00;;;10.20;99.90;;;;;;5096497;28;20187;-43
2022/12/22 07:54:18;;;;;;;8.00;2.93;;;10.20;1.00;;;;;;5096983;28;20517;-43
2022/12/22 07:56:45;;;;;;;4.57;1.80;;;10.30;99.90;;;;;;5080028;28;20579;-42
2022/12/22 07:59:12;;;;;;;6.37;2.00;;;10.30;99.90;;;;;;5078013;28;20238;-45
2022/12/22 08:01:40;;;;;;;7.27;2.10;;;10.30;99.90;;;;;;5095643;28;20759;-42
2022/12/22 08:04:06;;;;;;;4.20;1.30;;;10.40;99.90;;;;;;5076975;28;20519;-44
2022/12/22 08:06:33;;;;;;;5.43;2.30;;;10.40;1.00;;;;;;5095294;28;20423;-44
2022/12/22 08:08:59;;;;;;;8.60;2.80;;;10.40;1.00;;;;;;5077089;28;20414;-42
2022/12/22 08:11:25;;;;;;;5.77;2.27;;;10.40;1.00;;;;;;5092822;28;20418;-42
2022/12/22 08:13:53;;;;;;;6.87;1.80;;;10.40;1.00;;;;;;5093358;28;20466;-44
2022/12/22 08:16:20;;;;;;;9.30;2.10;;;10.40;1.00;;;;;;5094920;28;20713;-43
2022/12/22 08:18:46;;;;;;;8.10;2.40;;;10.40;1.00;;;;;;5095199;28;20426;-43
2022/12/22 08:21:11;;;;;;;5.23;1.70;;;10.40;1.00;;;;;;5093212;28;20871;-42
2022/12/22 08:23:38;;;;;;;11.27;2.77;;;10.50;1.00;;;;;;5096824;28;20884;-44
2022/12/22 08:26:13;;;;;;;6.40;2.40;;;10.60;1.00;;;;;;5097875;28;20463;-42
2022/12/22 08:29:03;;;;;;;5.10;2.00;;;10.70;99.90;;;;;;5098304;28;20466;-43
2022/12/22 08:31:29;;;;;;;4.70;1.80;;;10.80;1.00;;;;;;5097434;28;21090;-42
2022/12/22 08:33:56;;;;;;;5.80;1.60;;;10.90;99.90;;;;;;5096164;28;20874;-42
2022/12/22 08:36:22;;;;;;;5.43;1.73;;;11.00;99.90;;;;;;5096020;28;20763;-44
2022/12/22 08:38:48;;;;;;;5.50;1.90;;;11.00;99.90;;;;;;5095654;28;20407;-42
2022/12/22 08:41:48;;;;;;;4.83;1.87;;;11.10;99.90;;;;;;5096241;28;20212;-43
2022/12/22 08:44:01;;;;;;;7.83;2.00;;;11.10;99.90;;;;;;5096177;28;20253;-43
2022/12/22 08:46:26;;;;;;;6.20;2.30;;;11.30;99.90;;;;;;5095762;28;20713;-45
2022/12/22 08:48:52;;;;;;;8.87;1.53;;;12.10;1.00;;;;;;5096288;28;20555;-44
2022/12/22 08:51:20;;;;;;;4.80;1.60;;;13.40;1.00;;;;;;5076850;28;20280;-43
2022/12/22 08:53:46;;;;;;;7.73;1.33;;;14.70;1.00;;;;;;5094195;28;20343;-44
2022/12/22 08:56:11;;;;;;;4.30;1.70;;;15.80;99.90;;;;;;5093153;28;20716;-43
2022/12/22 08:58:39;;;;;;;4.50;1.30;;;16.80;26.40;;;;;;5094511;28;20188;-43
2022/12/22 09:01:04;;;;;;;4.43;1.00;;;17.30;1.00;;;;;;5092420;28;20203;-45
2022/12/22 09:03:31;;;;;;;4.50;1.30;;;17.50;1.00;;;;;;5093644;28;20425;-50
2022/12/22 09:06:03;;;;;;;5.83;1.40;;;17.80;99.90;;;;;;5094233;28;20176;-49
2022/12/22 09:08:28;;;;;;;4.10;1.27;;;18.10;99.90;;;;;;5091207;28;20784;-46
2022/12/22 09:10:54;;;;;;;4.27;1.90;;;18.90;99.90;;;;;;5092673;28;20529;-48
2022/12/22 09:13:20;;;;;;;3.50;1.70;;;19.80;1.00;;;;;;5092181;28;20187;-48
2022/12/22 09:15:48;;;;;;;6.23;2.50;;;19.80;1.00;;;;;;5092864;28;20560;-47
2022/12/22 09:18:14;;;;;;;3.70;1.93;;;19.40;1.00;;;;;;5075210;28;20241;-49
2022/12/22 09:20:39;;;;;;;5.83;2.00;;;18.80;1.00;;;;;;5091887;28;20430;-48
2022/12/22 09:23:08;;;;;;;4.80;2.00;;;18.10;1.00;;;;;;5092952;28;20184;-46
2022/12/22 09:25:34;;;;;;;2.93;1.57;;;17.60;1.00;;;;;;5092997;28;20195;-48
2022/12/22 09:28:00;;;;;;;3.37;1.53;;;17.10;44.20;;;;;;5089369;28;20894;-46
2022/12/22 09:30:25;;;;;;;9.57;2.67;;;16.70;99.90;;;;;;5090489;28;20450;-47
2022/12/22 09:32:54;;;;;;;4.57;1.73;;;16.50;99.90;;;;;;5073538;28;20180;-47
2022/12/22 09:35:19;;;;;;;6.93;2.30;;;16.20;99.90;;;;;;5091582;28;20222;-51
2022/12/22 09:37:45;;;;;;;5.50;1.70;;;16.10;99.90;;;;;;5091184;28;20484;-47
2022/12/22 09:40:11;;;;;;;4.90;1.77;;;16.00;1.00;;;;;;5092384;28;20287;-51
2022/12/22 09:42:37;;;;;;;4.43;1.70;;;16.00;99.90;;;;;;5091577;28;20646;-47
2022/12/22 09:45:03;;;;;;;6.90;2.13;;;15.90;1.00;;;;;;5093015;28;20514;-45
2022/12/22 09:47:36;;;;;;;5.77;2.00;;;15.80;99.90;;;;;;5093816;28;20517;-44
2022/12/22 09:50:03;;;;;;;2.50;1.40;;;15.60;99.90;;;;;;5075669;28;20766;-42
2022/12/22 09:52:35;;;;;;;6.30;2.30;;;15.30;99.90;;;;;;5077587;28;20878;-42
2022/12/22 09:55:04;;;;;;;4.17;1.43;;;14.80;99.90;;;;;;5093103;28;20426;-44
2022/12/22 09:57:31;;;;;;;4.77;1.97;;;14.50;1.00;;;;;;5076591;28;20423;-43
2022/12/22 10:00:13;;;;;;;7.37;1.60;;;14.30;1.00;;;;;;5090725;28;20430;-43
2022/12/22 10:02:57;;;;;;;4.17;1.40;;;14.00;99.90;;;;;;5091830;28;20461;-44
2022/12/22 10:05:37;;;;;;;2.70;1.20;;;13.80;99.90;;;;;;5092697;28;20410;-42
2022/12/22 10:08:13;;;;;;;3.20;1.23;;;13.60;1.00;;;;;;5077245;28;20421;-47
2022/12/22 10:10:40;;;;;;;3.23;1.73;;;13.40;1.00;;;;;;5093298;28;20511;-46
2022/12/22 10:13:17;;;;;;;4.53;1.40;;;13.20;99.90;;;;;;5093632;28;20556;-45
2022/12/22 10:15:43;;;;;;;4.70;1.53;;;13.00;99.90;;;;;;5091687;28;20462;-42
2022/12/22 10:18:19;;;;;;;3.50;1.10;;;12.80;1.00;;;;;;5097876;28;20792;-47
2022/12/22 10:21:07;;;;;;;3.80;1.97;;;12.70;1.00;;;;;;5098026;28;20402;-47
2022/12/22 10:23:37;;;;;;;3.83;1.50;;;12.60;99.90;;;;;;5094668;28;20854;-42
2022/12/22 10:26:07;;;;;;;3.40;1.27;;;12.50;99.90;;;;;;5093620;28;20409;-43
2022/12/22 10:28:59;;;;;;;3.60;1.20;;;12.40;99.90;;;;;;5095009;28;20415;-42
2022/12/22 10:31:27;;;;;;;3.53;1.20;;;12.30;1.00;;;;;;5087769;28;20530;-44
2022/12/22 10:34:19;;;;;;;3.43;1.60;;;12.20;1.00;;;;;;5077110;28;20470;-43
2022/12/22 10:36:49;;;;;;;2.10;1.10;;;12.10;1.00;;;;;;5095654;28;20653;-43
2022/12/22 10:39:34;;;;;;;4.70;1.23;;;12.00;73.20;;;;;;5096682;28;20418;-43
2022/12/22 10:42:12;;;;;;;7.43;1.33;;;12.00;99.90;;;;;;5096225;28;20492;-43
2022/12/22 10:44:38;;;;;;;3.70;1.50;;;12.00;99.90;;;;;;5095337;28;20847;-43
2022/12/22 10:47:12;;;;;;;3.27;1.27;;;11.90;99.90;;;;;;5094422;28;20448;-44
2022/12/22 10:49:42;;;;;;;2.67;1.40;;;11.90;99.90;;;;;;5097738;28;20411;-42
2022/12/22 10:52:16;;;;;;;2.40;1.03;;;11.80;99.90;;;;;;5095097;28;20450;-41
2022/12/22 10:54:43;;;;;;;3.97;1.43;;;11.80;1.00;;;;;;5093920;28;20448;-42
2022/12/22 10:57:12;;;;;;;5.50;2.03;;;11.70;1.00;;;;;;5095025;28;20422;-44
2022/12/22 10:59:59;;;;;;;4.67;1.30;;;11.70;1.00;;;;;;5095521;28;20422;-43
2022/12/22 11:02:42;;;;;;;4.63;1.40;;;11.70;1.00;;;;;;5094859;28;20454;-44
2022/12/22 11:05:13;;;;;;;4.40;1.77;;;11.70;12.30;;;;;;5096883;28;20453;-42
2022/12/22 11:07:41;;;;;;;2.90;1.10;;;11.80;1.00;;;;;;5077184;28;20454;-45
2022/12/22 11:11:00;;;;;;;4.17;1.20;;;12.00;1.00;;;;;;5091083;28;20426;-44
2022/12/22 11:13:45;;;;;;;7.07;1.87;;;12.30;1.00;;;;;;5036844;28;20461;-42
2022/12/22 11:16:43;;;;;;;4.27;1.40;;;12.70;99.90;;;;;;5094437;28;20429;-42
2022/12/22 11:19:39;;;;;;;4.67;1.60;;;13.10;1.00;;;;;;5094726;28;20538;-44
2022/12/22 11:22:47;;;;;;;2.50;1.07;;;13.50;99.90;;;;;;5094802;28;20457;-42
2022/12/22 11:25:31;;;;;;;3.20;1.13;;;13.80;1.00;;;;;;5079180;28;20525;-44
2022/12/22 11:28:14;;;;;;;3.40;1.20;;;14.00;99.90;;;;;;5076761;28;20811;-42
2022/12/22 11:31:23;;;;;;;2.77;1.20;;;14.10;1.00;;;;;;5076207;28;20415;-42
2022/12/22 11:34:03;;;;;;;2.93;1.40;;;14.10;1.00;;;;;;5073530;28;20437;-42
2022/12/22 11:36:48;;;;;;;2.50;0.90;;;14.30;1.00;;;;;;5078033;28;20553;-44
2022/12/22 11:39:38;;;;;;;6.97;1.70;;;15.20;1.00;;;;;;5095573;28;20435;-43
2022/12/22 11:42:12;;;;;;;7.97;1.40;;;15.90;12.30;;;;;;5067892;28;20565;-42
2022/12/22 11:45:09;;;;;;;6.47;1.00;;;16.20;1.00;;;;;;5096428;28;20415;-44
2022/12/22 11:48:07;;;;;;;4.23;1.63;;;16.20;99.90;;;;;;5023210;28;20465;-41
2022/12/22 11:50:51;;;;;;;3.47;1.00;;;16.30;99.90;;;;;;5057951;28;20419;-46
2022/12/22 11:53:42;;;;;;;3.23;0.90;;;16.10;99.90;;;;;;5073886;28;20637;-43
2022/12/22 11:56:28;;;;;;;3.27;1.10;;;16.00;99.90;;;;;;5093493;28;20411;-43
2022/12/22 11:59:07;;;;;;;8.80;1.30;;;15.90;99.90;;;;;;5075405;28;20524;-44
2022/12/22 12:01:55;;;;;;;5.63;1.37;;;16.00;99.90;;;;;;5074824;28;20458;-43
2022/12/22 12:04:45;;;;;;;6.57;2.30;;;16.20;99.90;;;;;;5080722;28;20886;-45
2022/12/22 12:07:16;;;;;;;6.60;1.30;;;16.60;1.00;;;;;;5092971;28;20417;-49
2022/12/22 12:09:57;;;;;;;3.97;1.20;;;16.80;99.90;;;;;;5092779;28;20475;-42
2022/12/22 12:12:44;;;;;;;2.63;0.80;;;16.70;99.90;;;;;;5090696;28;20424;-45
2022/12/22 12:15:10;;;;;;;1.80;1.00;;;16.50;92.70;;;;;;5091947;28;20498;-42
2022/12/22 12:18:07;;;;;;;2.10;1.00;;;16.40;28.00;;;;;;5094359;28;20886;-42
2022/12/22 12:21:01;;;;;;;1.80;0.80;;;16.60;34.00;;;;;;5078410;28;20255;-47
2022/12/22 12:23:38;;;;;;;2.23;0.90;;;17.30;1.00;;;;;;5093561;28;20410;-45
2022/12/22 12:26:09;;;;;;;2.03;0.90;;;18.40;1.00;;;;;;5094807;28;20846;-42
2022/12/22 12:29:10;;;;;;;1.57;0.63;;;19.40;1.00;;;;;;5093591;28;20528;-47
2022/12/22 12:31:53;;;;;;;2.10;1.00;;;20.20;1.00;;;;;;5089403;28;20422;-51
2022/12/22 12:34:20;;;;;;;1.20;0.50;;;21.70;1.00;;;;;;5095172;28;20418;-45
2022/12/22 12:37:07;;;;;;;1.30;0.83;;;22.20;1.00;;;;;;5075823;28;20426;-45
2022/12/22 12:39:50;;;;;;;1.43;0.57;;;22.20;1.00;;;;;;5098674;28;20708;-43
2022/12/22 12:42:34;;;;;;;2.50;0.90;;;21.30;1.00;;;;;;5096997;28;20564;-44
2022/12/22 12:45:01;;;;;;;2.17;0.70;;;19.90;1.00;;;;;;5095223;28;20414;-42
2022/12/22 12:47:31;;;;;;;2.23;1.70;;;19.00;1.00;;;;;;5096038;28;20413;-43
2022/12/22 12:50:16;;;;;;;1.80;1.10;;;18.10;1.00;;;;;;5094641;28;20855;-44
2022/12/22 12:52:47;;;;;;;1.77;0.90;;;17.40;1.00;;;;;;5095300;28;20414;-44
2022/12/22 12:55:30;;;;;;;1.63;0.70;;;17.00;1.00;;;;;;5095986;28;20427;-43
2022/12/22 12:57:57;;;;;;;1.10;0.60;;;16.50;1.00;;;;;;5096004;28;20418;-43
2022/12/22 13:00:32;;;;;;;1.67;0.67;;;16.10;1.00;;;;;;5076197;28;20414;-54
2022/12/22 13:03:10;;;;;;;1.87;0.70;;;15.70;1.00;;;;;;5091666;28;20859;-45
2022/12/22 13:05:48;;;;;;;1.80;1.37;;;15.60;1.00;;;;;;5075859;28;20406;-43
2022/12/22 13:08:20;;;;;;;2.00;0.77;;;15.30;1.00;;;;;;5093855;28;20426;-44
2022/12/22 13:10:54;;;;;;;1.50;0.80;;;15.20;1.00;;;;;;5092832;28;20442;-45
2022/12/22 13:13:25;;;;;;;1.73;0.90;;;15.20;33.70;;;;;;5093165;28;20449;-43
2022/12/22 13:16:03;;;;;;;3.73;0.97;;;15.60;62.00;;;;;;5094197;28;20423;-49
2022/12/22 13:18:39;;;;;;;2.63;1.37;;;16.20;1.00;;;;;;5093930;28;20438;-43
2022/12/22 13:21:04;;;;;;;2.00;0.90;;;17.40;1.00;;;;;;5075751;28;20533;-45
2022/12/22 13:23:40;;;;;;;1.97;0.70;;;18.70;1.00;;;;;;5093462;28;20504;-42
2022/12/22 13:26:13;;;;;;;1.50;0.90;;;19.80;1.00;;;;;;5075690;28;20534;-43
2022/12/22 13:28:41;;;;;;;2.53;1.00;;;19.90;1.00;;;;;;5093229;28;20831;-43
2022/12/22 13:31:19;;;;;;;3.00;1.33;;;19.40;1.00;;;;;;5094453;28;20871;-43
2022/12/22 13:33:59;;;;;;;2.33;1.13;;;18.90;1.00;;;;;;5092054;28;20579;-43
2022/12/22 13:36:26;;;;;;;2.47;1.40;;;18.40;1.00;;;;;;5076184;28;20505;-43
2022/12/22 13:39:05;;;;;;;3.83;1.10;;;18.10;1.00;;;;;;5094686;28;20430;-43
2022/12/22 13:41:32;;;;;;;2.13;1.30;;;17.60;1.00;;;;;;5075627;28;20530;-44
2022/12/22 13:44:03;;;;;;;4.10;1.20;;;17.20;1.00;;;;;;5092607;28;20432;-42
2022/12/22 13:46:30;;;;;;;2.80;1.17;;;16.90;1.00;;;;;;5074135;28;20433;-43
2022/12/22 13:48:59;;;;;;;3.10;1.10;;;16.70;1.00;;;;;;5075052;28;20457;-44
2022/12/22 13:51:31;;;;;;;1.50;0.70;;;16.40;1.00;;;;;;5093292;28;20487;-43
2022/12/22 13:53:58;;;;;;;3.70;1.13;;;16.10;1.00;;;;;;5074798;28;20517;-42
2022/12/22 13:56:27;;;;;;;4.50;1.33;;;15.80;1.00;;;;;;5093393;28;20836;-44
2022/12/22 13:59:00;;;;;;;3.23;1.40;;;15.80;1.00;;;;;;5075527;28;20426;-42
2022/12/22 14:01:26;;;;;;;2.70;1.07;;;15.80;1.00;;;;;;5077355;28;20470;-41
2022/12/22 14:03:56;;;;;;;3.27;1.40;;;16.00;1.00;;;;;;5094435;28;20434;-42
2022/12/22 14:06:27;;;;;;;2.17;0.87;;;16.20;1.00;;;;;;5076423;28;20188;-42
2022/12/22 14:08:53;;;;;;;3.10;1.40;;;16.50;1.00;;;;;;5092489;28;20426;-45
2022/12/22 14:11:21;;;;;;;4.30;1.40;;;16.80;1.00;;;;;;5093243;28;20511;-43
2022/12/22 14:13:47;;;;;;;4.90;2.00;;;17.00;1.00;;;;;;5076977;28;20888;-43
2022/12/22 14:16:14;;;;;;;6.90;2.30;;;17.10;1.00;;;;;;5093939;28;20414;-43
2022/12/22 14:18:40;;;;;;;3.00;1.60;;;17.00;1.00;;;;;;5082347;28;20433;-44
2022/12/22 14:21:07;;;;;;;5.10;1.53;;;16.70;1.00;;;;;;5113044;28;20475;-45
2022/12/22 14:23:37;;;;;;;3.57;1.70;;;16.40;1.00;;;;;;5112967;28;20417;-43
2022/12/22 14:26:07;;;;;;;4.60;1.90;;;16.10;1.00;;;;;;5112270;28;20417;-42
2022/12/22 14:28:38;;;;;;;4.37;1.50;;;15.70;1.00;;;;;;5095167;28;20528;-41
2022/12/22 14:31:05;;;;;;;5.07;1.60;;;15.50;1.00;;;;;;5095113;28;20458;-41
2022/12/22 14:33:32;;;;;;;4.53;1.90;;;15.30;1.00;;;;;;5094420;28;20460;-43
2022/12/22 14:36:12;;;;;;;4.40;1.40;;;15.00;1.00;;;;;;5094912;28;20735;-43
2022/12/22 14:38:40;;;;;;;3.90;1.40;;;14.80;1.00;;;;;;5113727;28;20418;-42
2022/12/22 14:41:39;;;;;;;4.97;1.37;;;14.60;1.00;;;;;;5113166;28;20473;-42
2022/12/22 14:43:58;;;;;;;4.97;1.50;;;14.40;21.60;;;;;;5112608;28;20566;-45
2022/12/22 14:46:23;;;;;;;3.23;1.60;;;14.20;1.00;;;;;;5096310;28;20418;-42
2022/12/22 14:48:49;;;;;;;7.27;1.97;;;14.50;1.00;;;;;;5115357;28;20428;-44
2022/12/22 14:51:18;;;;;;;4.03;1.37;;;14.60;99.90;;;;;;5115085;28;20278;-45
2022/12/22 14:53:45;;;;;;;5.03;1.80;;;14.80;1.00;;;;;;5113219;28;20473;-44
2022/12/22 14:56:16;;;;;;;5.40;1.70;;;14.80;1.00;;;;;;5096567;28;20429;-45
2022/12/22 14:58:43;;;;;;;4.57;1.83;;;14.60;99.90;;;;;;5112499;28;20437;-43
2022/12/22 15:01:21;;;;;;;5.30;1.50;;;14.20;1.00;;;;;;5093313;28;20468;-44
2022/12/22 15:04:18;;;;;;;2.53;1.50;;;13.80;1.00;;;;;;5112067;28;20414;-44
2022/12/22 15:06:46;;;;;;;7.00;2.53;;;13.40;1.00;;;;;;5115426;28;20536;-43
2022/12/22 15:09:12;;;;;;;5.77;1.87;;;13.10;51.80;;;;;;5096953;28;20417;-44
2022/12/22 15:11:44;;;;;;;5.23;2.00;;;12.80;99.90;;;;;;5114677;28;20420;-41
2022/12/22 15:14:19;;;;;;;6.40;2.00;;;12.60;1.00;;;;;;5099546;28;20230;-44
2022/12/22 15:16:45;;;;;;;6.40;1.80;;;12.50;1.00;;;;;;5112497;28;20478;-53
2022/12/22 15:19:15;;;;;;;5.57;2.20;;;12.20;99.90;;;;;;5111791;28;20715;-44
2022/12/22 15:21:41;;;;;;;8.20;1.70;;;12.10;99.90;;;;;;5113298;28;20540;-42
2022/12/22 15:24:17;;;;;;;5.50;2.00;;;12.00;1.00;;;;;;5112630;28;20757;-44
2022/12/22 15:26:44;;;;;;;6.23;1.83;;;11.90;1.00;;;;;;5095993;28;20526;-44
2022/12/22 15:29:12;;;;;;;7.33;2.20;;;11.70;1.60;;;;;;5113182;28;20426;-47
2022/12/22 15:31:39;;;;;;;6.07;1.80;;;11.60;99.90;;;;;;5112684;28;20424;-42
2022/12/22 15:34:11;;;;;;;7.07;2.17;;;11.50;99.90;;;;;;5111186;28;20433;-42
2022/12/22 15:36:36;;;;;;;7.27;2.17;;;11.40;99.90;;;;;;5115514;28;20513;-44
2022/12/22 15:39:02;;;;;;;6.43;2.40;;;11.40;1.00;;;;;;5112010;28;20898;-44
2022/12/22 15:41:29;;;;;;;7.53;2.23;;;11.30;1.00;;;;;;5114473;28;20211;-42
2022/12/22 15:43:55;;;;;;;5.27;2.40;;;11.20;1.00;;;;;;5115645;28;20178;-41
2022/12/22 15:46:20;;;;;;;8.90;3.17;;;11.20;14.90;;;;;;5114005;28;20414;-43
2022/12/22 15:48:46;;;;;;;6.90;2.43;;;11.10;91.50;;;;;;5116366;28;20184;-45
2022/12/22 15:51:27;;;;;;;11.13;2.70;;;11.10;99.90;;;;;;5117630;28;20501;-46
2022/12/22 15:53:54;;;;;;;6.43;2.77;;;11.00;99.90;;;;;;5116647;28;20176;-42
2022/12/22 15:56:22;;;;;;;5.47;2.37;;;10.90;99.90;;;;;;5117713;28;20470;-44
2022/12/22 15:58:48;;;;;;;11.10;4.00;;;10.90;99.90;;;;;;5115471;28;21092;-43
2022/12/22 16:01:14;;;;;;;5.63;2.90;;;10.80;99.90;;;;;;5113183;28;20469;-42
2022/12/22 16:03:43;;;;;;;7.87;2.43;;;10.70;1.00;;;;;;5111670;28;20456;-44
2022/12/22 16:06:15;;;;;;;6.07;2.60;;;10.70;99.90;;;;;;5115190;28;20528;-44
2022/12/22 16:08:47;;;;;;;9.30;2.67;;;10.60;1.00;;;;;;5115346;28;20425;-43
2022/12/22 16:11:12;;;;;;;2.83;1.60;;;10.60;1.00;;;;;;5115126;28;20830;-43
2022/12/22 16:13:38;;;;;;;9.47;2.90;;;10.60;99.90;;;;;;5113231;28;20440;-42
2022/12/22 16:16:04;;;;;;;7.57;2.57;;;10.50;1.00;;;;;;5114178;28;20200;-42
2022/12/22 16:18:30;;;;;;;6.40;2.20;;;10.50;1.00;;;;;;5113786;28;20184;-41
2022/12/22 16:20:57;;;;;;;4.10;1.70;;;10.40;1.00;;;;;;5111595;28;20244;-44
2022/12/22 16:23:24;;;;;;;8.63;2.47;;;10.40;1.00;;;;;;5093791;28;20204;-43
2022/12/22 16:25:53;;;;;;;11.73;2.80;;;10.40;1.00;;;;;;5076175;28;20589;-43
2022/12/22 16:28:21;;;;;;;8.43;2.60;;;10.40;1.00;;;;;;5112812;28;20487;-42
2022/12/22 16:30:49;;;;;;;5.43;2.20;;;10.30;1.00;;;;;;5078504;28;20715;-44
2022/12/22 16:33:15;;;;;;;8.47;2.73;;;10.30;1.00;;;;;;5112697;28;20622;-42
2022/12/22 16:35:41;;;;;;;6.97;2.70;;;10.30;9.10;;;;;;5078610;28;20533;-42
2022/12/22 16:38:08;;;;;;;9.13;3.40;;;10.30;99.90;;;;;;5114567;28;20464;-45
2022/12/22 16:40:41;;;;;;;15.30;3.77;;;10.20;99.90;;;;;;5114599;28;20413;-43
2022/12/22 16:43:28;;;;;;;14.70;2.80;;;10.20;99.90;;;;;;5078122;28;20498;-44
2022/12/22 16:45:54;;;;;;;11.30;2.50;;;10.20;99.90;;;;;;5095995;28;20733;-46
2022/12/22 16:48:53;;;;;;;9.17;3.10;;;10.20;99.90;;;;;;5113636;28;20413;-43
2022/12/22 16:51:25;;;;;;;7.93;2.50;;;10.20;99.90;;;;;;5112036;28;20517;-45